Time;durP1;ratioP1;P1;durP2;ratioP2;P2;SDS_P1;SDS_P2;PMS_P1;PMS_P2;Temp;Humidity;BMP_temperature;BMP_pressure;BME280_temperature;BME280_humidity;BME280_pressure;Samples;Min_cycle;Max_cycle;Signal;HPM_P1;HPM_P2
2023/12/07 00:01:34;;;;;;;;;;;3.50;99.90;;;;;;5105230;28;20002;-68
2023/12/07 00:04:00;;;;;;;;;;;3.50;99.90;;;;;;5104991;28;19965;-69
2023/12/07 00:06:26;;;;;;;;;;;3.50;99.90;;;;;;5105057;28;19911;-69
2023/12/07 00:08:51;;;;;;;;;;;3.50;99.90;;;;;;5114038;27;19911;-68
2023/12/07 00:11:17;;;;;;;;;;;3.50;99.90;;;;;;5114624;27;19923;-69
2023/12/07 00:13:42;;;;;;;;;;;3.50;99.90;;;;;;5114099;27;19998;-68
2023/12/07 00:16:08;;;;;;;;;;;3.50;99.90;;;;;;5125989;27;19919;-69
2023/12/07 00:18:34;;;;;;;;;;;3.50;99.90;;;;;;5126182;27;20101;-68
2023/12/07 00:20:59;;;;;;;;;;;3.50;99.90;;;;;;5123545;27;20252;-69
2023/12/07 00:23:25;;;;;;;;;;;3.50;99.90;;;;;;5105797;28;19918;-69
2023/12/07 00:25:50;;;;;;;;;;;3.50;99.90;;;;;;5105658;27;19920;-69
2023/12/07 00:28:16;;;;;;;;;;;3.50;99.90;;;;;;5105355;28;19919;-69
2023/12/07 00:30:42;;;;;;;;;;;3.50;99.90;;;;;;5104807;28;19926;-68
2023/12/07 00:33:08;;;;;;;;;;;3.50;99.90;;;;;;5096854;27;19920;-69
2023/12/07 00:35:34;;;;;;;;;;;3.50;99.90;;;;;;5105320;28;20078;-69
2023/12/07 00:38:00;;;;;;;;;;;3.50;99.90;;;;;;5103638;27;19999;-68
2023/12/07 00:40:25;;;;;;;;;;;3.50;99.90;;;;;;5105075;28;20461;-69
2023/12/07 00:42:51;;;;;;;;;;;3.50;99.90;;;;;;5114586;27;19915;-69
2023/12/07 00:45:16;;;;;;;;;;;3.50;99.90;;;;;;5120673;27;19911;-69
2023/12/07 00:47:42;;;;;;;;;;;3.50;99.90;;;;;;5105099;28;20351;-69
2023/12/07 00:50:08;;;;;;;;;;;3.50;99.90;;;;;;5105187;28;19950;-69
2023/12/07 00:52:33;;;;;;;;;;;3.50;99.90;;;;;;5105112;28;19946;-69
2023/12/07 00:54:59;;;;;;;;;;;3.50;99.90;;;;;;5104780;27;19989;-69
2023/12/07 00:57:24;;;;;;;;;;;3.50;99.90;;;;;;5105173;28;19914;-69
2023/12/07 00:59:50;;;;;;;;;;;3.50;99.90;;;;;;5112772;27;20470;-69
2023/12/07 01:02:15;;;;;;;;;;;3.50;99.90;;;;;;5112230;27;19912;-69
2023/12/07 01:04:41;;;;;;;;;;;3.50;99.90;;;;;;5121896;27;19953;-68
2023/12/07 01:07:06;;;;;;;;;;;3.50;99.90;;;;;;5104712;27;19918;-68
2023/12/07 01:09:33;;;;;;;;;;;3.50;99.90;;;;;;5105391;28;19920;-69
2023/12/07 01:11:58;;;;;;;;;;;3.50;99.90;;;;;;5104684;28;19916;-69
2023/12/07 01:14:24;;;;;;;;;;;3.50;99.90;;;;;;5104984;28;20425;-68
2023/12/07 01:16:49;;;;;;;;;;;3.50;99.90;;;;;;5103981;28;19954;-69
2023/12/07 01:19:15;;;;;;;;;;;3.50;99.90;;;;;;5104856;28;19911;-69
2023/12/07 01:21:44;;;;;;;;;;;3.50;99.90;;;;;;5104842;28;19978;-69
2023/12/07 01:24:09;;;;;;;;;;;3.50;99.90;;;;;;5108831;27;20010;-69
2023/12/07 01:26:35;;;;;;;;;;;3.50;99.90;;;;;;5116429;27;20038;-68
2023/12/07 01:29:00;;;;;;;;;;;3.50;99.90;;;;;;5113640;27;19923;-69
2023/12/07 01:31:26;;;;;;;;;;;3.50;99.90;;;;;;5118845;27;19930;-69
2023/12/07 01:33:51;;;;;;;;;;;3.50;99.90;;;;;;5123508;27;19919;-68
2023/12/07 01:36:17;;;;;;;;;;;3.50;99.90;;;;;;5112885;27;19912;-69
2023/12/07 01:38:43;;;;;;;;;;;3.50;99.90;;;;;;5104779;28;20259;-69
2023/12/07 01:41:09;;;;;;;;;;;3.50;99.90;;;;;;5108470;27;19912;-69
2023/12/07 01:43:34;;;;;;;;;;;3.50;99.90;;;;;;5098463;28;19919;-68
2023/12/07 01:46:00;;;;;;;;;;;3.50;99.90;;;;;;5104080;28;19918;-69
2023/12/07 01:48:26;;;;;;;;;;;3.50;99.90;;;;;;5104173;28;19915;-68
2023/12/07 01:50:52;;;;;;;;;;;3.50;99.90;;;;;;5103734;28;19959;-69
2023/12/07 01:53:18;;;;;;;;;;;3.50;99.90;;;;;;5104202;28;20693;-69
2023/12/07 01:55:43;;;;;;;;;;;3.50;99.90;;;;;;5102504;28;19962;-68
2023/12/07 01:58:09;;;;;;;;;;;3.50;99.90;;;;;;5108181;27;19918;-69
2023/12/07 02:00:35;;;;;;;;;;;3.50;99.90;;;;;;5109237;27;19912;-68
2023/12/07 02:03:02;;;;;;;;;;;3.50;99.90;;;;;;5107197;28;19968;-68
2023/12/07 02:05:28;;;;;;;;;;;3.50;99.90;;;;;;5103922;28;19916;-69
2023/12/07 02:07:54;;;;;;;;;;;3.50;99.90;;;;;;5103738;28;20040;-69
2023/12/07 02:10:19;;;;;;;;;;;3.40;99.90;;;;;;5104248;27;20010;-69
2023/12/07 02:12:46;;;;;;;;;;;3.40;99.90;;;;;;5103904;28;19916;-69
2023/12/07 02:15:11;;;;;;;;;;;3.40;99.90;;;;;;5102598;28;20049;-69
2023/12/07 02:17:43;;;;;;;;;;;3.40;99.90;;;;;;5104304;28;20344;-69
2023/12/07 02:20:10;;;;;;;;;;;3.40;99.90;;;;;;5107918;28;19911;-69
2023/12/07 02:22:38;;;;;;;;;;;3.40;99.90;;;;;;5124743;27;20167;-68
2023/12/07 02:25:08;;;;;;;;;;;3.40;99.90;;;;;;5123689;27;19922;-69
2023/12/07 02:27:38;;;;;;;;;;;3.40;99.90;;;;;;5124660;27;19911;-69
2023/12/07 02:30:04;;;;;;;;;;;3.40;99.90;;;;;;5114391;27;19927;-69
2023/12/07 02:32:29;;;;;;;;;;;3.40;99.90;;;;;;5106975;28;19915;-69
2023/12/07 02:34:55;;;;;;;;;;;3.40;99.90;;;;;;5105794;28;19962;-69
2023/12/07 02:37:21;;;;;;;;;;;3.40;99.90;;;;;;5107515;28;19961;-69
2023/12/07 02:39:47;;;;;;;;;;;3.50;99.90;;;;;;5107439;27;19966;-69
2023/12/07 02:42:14;;;;;;;;;;;3.40;99.90;;;;;;5106356;28;19911;-68
2023/12/07 02:44:40;;;;;;;;;;;3.40;99.90;;;;;;5107379;28;19977;-69
2023/12/07 02:47:05;;;;;;;;;;;3.40;99.90;;;;;;5124163;27;19920;-68
2023/12/07 02:49:31;;;;;;;;;;;3.40;99.90;;;;;;5114317;27;19912;-69
2023/12/07 02:51:56;;;;;;;;;;;3.40;99.90;;;;;;5108713;27;19915;-68
2023/12/07 02:54:22;;;;;;;;;;;3.40;99.90;;;;;;5115805;27;20034;-69
2023/12/07 02:56:48;;;;;;;;;;;3.40;99.90;;;;;;5106218;28;19908;-69
2023/12/07 02:59:13;;;;;;;;;;;3.50;99.90;;;;;;5106760;28;20647;-69
2023/12/07 03:01:39;;;;;;;;;;;3.40;99.90;;;;;;5105334;28;19943;-69
2023/12/07 03:04:04;;;;;;;;;;;3.40;99.90;;;;;;5107120;28;19919;-69
2023/12/07 03:06:30;;;;;;;;;;;3.40;99.90;;;;;;5107129;27;19916;-69
2023/12/07 03:08:55;;;;;;;;;;;3.40;99.90;;;;;;5115652;27;20006;-69
2023/12/07 03:11:21;;;;;;;;;;;3.40;99.90;;;;;;5112208;27;20367;-69
2023/12/07 03:13:47;;;;;;;;;;;3.40;99.90;;;;;;5118857;27;19911;-69
2023/12/07 03:16:12;;;;;;;;;;;3.40;99.90;;;;;;5127289;27;20519;-69
2023/12/07 03:18:38;;;;;;;;;;;3.40;99.90;;;;;;5111259;27;19912;-68
2023/12/07 03:21:03;;;;;;;;;;;3.40;99.90;;;;;;5106748;28;19912;-69
2023/12/07 03:23:29;;;;;;;;;;;3.40;99.90;;;;;;5113526;27;19921;-69
2023/12/07 03:25:54;;;;;;;;;;;3.40;99.90;;;;;;5107089;27;19911;-69
2023/12/07 03:28:20;;;;;;;;;;;3.40;99.90;;;;;;5105310;28;19912;-69
2023/12/07 03:30:45;;;;;;;;;;;3.40;99.90;;;;;;5104863;27;19916;-69
2023/12/07 03:33:11;;;;;;;;;;;3.40;99.90;;;;;;5105311;28;19915;-69
2023/12/07 03:35:36;;;;;;;;;;;3.40;99.90;;;;;;5106918;28;19916;-69
2023/12/07 03:38:02;;;;;;;;;;;3.40;99.90;;;;;;5108755;27;19912;-69
2023/12/07 03:40:27;;;;;;;;;;;3.40;99.90;;;;;;5118211;27;19908;-68
2023/12/07 03:42:53;;;;;;;;;;;3.40;99.90;;;;;;5108519;27;19912;-68
2023/12/07 03:45:18;;;;;;;;;;;3.40;99.90;;;;;;5105997;27;19919;-69
2023/12/07 03:47:44;;;;;;;;;;;3.40;99.90;;;;;;5106566;28;20400;-69
2023/12/07 03:50:09;;;;;;;;;;;3.40;99.90;;;;;;5114890;27;19961;-68
2023/12/07 03:52:35;;;;;;;;;;;3.40;99.90;;;;;;5106611;28;20032;-69
2023/12/07 03:55:01;;;;;;;;;;;3.40;99.90;;;;;;5108122;27;19963;-68
2023/12/07 03:57:26;;;;;;;;;;;3.40;99.90;;;;;;5116847;27;20263;-68
2023/12/07 03:59:53;;;;;;;;;;;3.40;99.90;;;;;;5119168;27;19912;-68
2023/12/07 04:02:19;;;;;;;;;;;3.40;99.90;;;;;;5121986;27;19911;-68
2023/12/07 04:04:44;;;;;;;;;;;3.40;99.90;;;;;;5106383;27;19994;-68
2023/12/07 04:07:10;;;;;;;;;;;3.40;99.90;;;;;;5116190;27;19912;-69
2023/12/07 04:09:35;;;;;;;;;;;3.40;99.90;;;;;;5119502;27;19911;-69
2023/12/07 04:12:01;;;;;;;;;;;3.40;99.90;;;;;;5113878;27;20355;-69
2023/12/07 04:14:27;;;;;;;;;;;3.40;99.90;;;;;;5104350;28;20527;-69
2023/12/07 04:16:53;;;;;;;;;;;3.40;99.90;;;;;;5104853;28;19918;-69
2023/12/07 04:19:18;;;;;;;;;;;3.40;99.90;;;;;;5105543;28;19935;-69
2023/12/07 04:21:44;;;;;;;;;;;3.40;99.90;;;;;;5108000;27;19936;-69
2023/12/07 04:24:09;;;;;;;;;;;3.40;99.90;;;;;;5113186;27;19959;-69
2023/12/07 04:26:35;;;;;;;;;;;3.40;99.90;;;;;;5110544;27;20416;-69
2023/12/07 04:29:00;;;;;;;;;;;3.40;99.90;;;;;;5115005;27;19934;-69
2023/12/07 04:31:26;;;;;;;;;;;3.40;99.90;;;;;;5119419;27;19923;-68
2023/12/07 04:33:51;;;;;;;;;;;3.40;99.90;;;;;;5106457;27;19911;-68
2023/12/07 04:36:17;;;;;;;;;;;3.40;99.90;;;;;;5105196;28;20029;-68
2023/12/07 04:38:42;;;;;;;;;;;3.40;99.90;;;;;;5105549;28;19914;-68
2023/12/07 04:41:08;;;;;;;;;;;3.40;99.90;;;;;;5103516;28;19934;-68
2023/12/07 04:43:33;;;;;;;;;;;3.40;99.90;;;;;;5105230;28;19911;-69
2023/12/07 04:45:59;;;;;;;;;;;3.40;99.90;;;;;;5105034;27;20098;-69
2023/12/07 04:48:25;;;;;;;;;;;3.40;99.90;;;;;;5117421;27;20004;-69
2023/12/07 04:50:51;;;;;;;;;;;3.40;99.90;;;;;;5116058;27;20213;-69
2023/12/07 04:53:16;;;;;;;;;;;3.40;99.90;;;;;;5121123;27;19918;-69
2023/12/07 04:55:46;;;;;;;;;;;3.40;99.90;;;;;;5113597;27;20273;-68
2023/12/07 04:58:12;;;;;;;;;;;3.40;99.90;;;;;;5095461;28;19999;-69
2023/12/07 05:00:38;;;;;;;;;;;3.40;99.90;;;;;;5105230;28;19912;-69
2023/12/07 05:03:03;;;;;;;;;;;3.40;99.90;;;;;;5105019;28;19911;-69
2023/12/07 05:05:29;;;;;;;;;;;3.40;99.90;;;;;;5104648;28;19908;-69
2023/12/07 05:07:54;;;;;;;;;;;3.40;99.90;;;;;;5104881;28;19912;-68
2023/12/07 05:10:20;;;;;;;;;;;3.40;99.90;;;;;;5105071;28;19923;-69
2023/12/07 05:12:45;;;;;;;;;;;3.40;99.90;;;;;;5104852;28;19918;-68
2023/12/07 05:15:11;;;;;;;;;;;3.40;99.90;;;;;;5123601;27;19911;-69
2023/12/07 05:17:36;;;;;;;;;;;3.40;99.90;;;;;;5125264;27;19919;-69
2023/12/07 05:20:04;;;;;;;;;;;3.40;99.90;;;;;;5122524;27;19911;-68
2023/12/07 05:22:30;;;;;;;;;;;3.50;99.90;;;;;;5103301;28;19969;-69
2023/12/07 05:24:56;;;;;;;;;;;3.40;99.90;;;;;;5104463;28;20469;-68
2023/12/07 05:27:21;;;;;;;;;;;3.50;99.90;;;;;;5104570;28;19968;-69
2023/12/07 05:29:47;;;;;;;;;;;3.50;99.90;;;;;;5100606;28;19942;-68
2023/12/07 05:32:12;;;;;;;;;;;3.50;99.90;;;;;;5104914;28;19944;-68
2023/12/07 05:34:38;;;;;;;;;;;3.50;99.90;;;;;;5111798;27;19919;-69
2023/12/07 05:37:04;;;;;;;;;;;3.50;99.90;;;;;;5108836;27;19912;-69
2023/12/07 05:39:30;;;;;;;;;;;3.40;99.90;;;;;;5125239;27;20281;-69
2023/12/07 05:41:55;;;;;;;;;;;3.50;99.90;;;;;;5123724;27;19911;-69
2023/12/07 05:44:22;;;;;;;;;;;3.50;99.90;;;;;;5112904;28;20387;-69
2023/12/07 05:46:48;;;;;;;;;;;3.50;99.90;;;;;;5103906;27;19935;-68
2023/12/07 05:49:13;;;;;;;;;;;3.50;99.90;;;;;;5104573;28;19911;-69
2023/12/07 05:51:39;;;;;;;;;;;3.50;99.90;;;;;;5103632;28;19930;-68
2023/12/07 05:54:05;;;;;;;;;;;3.50;99.90;;;;;;5104061;28;19915;-69
2023/12/07 05:56:31;;;;;;;;;;;3.50;99.90;;;;;;5102102;28;19927;-69
2023/12/07 05:58:56;;;;;;;;;;;3.50;99.90;;;;;;5104524;28;19964;-69
2023/12/07 06:01:22;;;;;;;;;;;3.50;99.90;;;;;;5103459;28;20032;-69
2023/12/07 06:03:47;;;;;;;;;;;3.50;99.90;;;;;;5107748;27;20388;-69
2023/12/07 06:06:13;;;;;;;;;;;3.50;99.90;;;;;;5107748;27;19961;-68
2023/12/07 06:08:39;;;;;;;;;;;3.50;99.90;;;;;;5106676;28;19915;-69
2023/12/07 06:11:04;;;;;;;;;;;3.40;99.90;;;;;;5107930;28;19915;-68
2023/12/07 06:13:31;;;;;;;;;;;3.40;99.90;;;;;;5105072;28;19989;-68
2023/12/07 06:15:56;;;;;;;;;;;3.40;99.90;;;;;;5106564;28;19919;-69
2023/12/07 06:18:22;;;;;;;;;;;3.40;99.90;;;;;;5107488;28;19923;-69
2023/12/07 06:20:47;;;;;;;;;;;3.40;99.90;;;;;;5108693;27;19962;-69
2023/12/07 06:23:13;;;;;;;;;;;3.40;99.90;;;;;;5109890;27;19996;-68
2023/12/07 06:25:39;;;;;;;;;;;3.40;99.90;;;;;;5107517;28;19955;-69
2023/12/07 06:28:04;;;;;;;;;;;3.40;99.90;;;;;;5110209;27;20395;-69
2023/12/07 06:30:30;;;;;;;;;;;3.40;99.90;;;;;;5105396;28;19920;-69
2023/12/07 06:32:56;;;;;;;;;;;3.40;99.90;;;;;;5108787;27;19912;-69
2023/12/07 06:35:21;;;;;;;;;;;3.40;99.90;;;;;;5108853;27;20024;-69
2023/12/07 06:37:47;;;;;;;;;;;3.30;99.90;;;;;;5107658;27;20361;-69
2023/12/07 06:40:12;;;;;;;;;;;3.30;99.90;;;;;;5104430;28;20006;-69
2023/12/07 06:42:38;;;;;;;;;;;3.30;99.90;;;;;;5107484;27;20018;-69
2023/12/07 06:45:04;;;;;;;;;;;3.30;99.90;;;;;;5099643;27;20021;-69
2023/12/07 06:47:30;;;;;;;;;;;3.30;99.90;;;;;;5106538;28;20336;-69
2023/12/07 06:49:56;;;;;;;;;;;3.30;99.90;;;;;;5116835;27;19931;-69
2023/12/07 06:52:21;;;;;;;;;;;3.20;99.90;;;;;;5128619;27;19911;-69
2023/12/07 06:54:47;;;;;;;;;;;3.20;99.90;;;;;;5128003;27;19988;-69
2023/12/07 06:57:13;;;;;;;;;;;3.20;99.90;;;;;;5111038;27;19944;-69
2023/12/07 06:59:38;;;;;;;;;;;3.20;99.90;;;;;;5112337;27;19967;-69
2023/12/07 07:02:04;;;;;;;;;;;3.20;99.90;;;;;;5107698;28;19908;-69
2023/12/07 07:04:29;;;;;;;;;;;3.20;99.90;;;;;;5107579;28;19915;-69
2023/12/07 07:06:55;;;;;;;;;;;3.20;99.90;;;;;;5106772;28;20290;-69
2023/12/07 07:09:20;;;;;;;;;;;3.10;99.90;;;;;;5111752;27;19922;-69
2023/12/07 07:11:47;;;;;;;;;;;3.10;99.90;;;;;;5127628;27;19923;-69
2023/12/07 07:14:13;;;;;;;;;;;3.10;99.90;;;;;;5116644;27;20039;-69
2023/12/07 07:16:38;;;;;;;;;;;3.10;99.90;;;;;;5100721;28;20002;-69
2023/12/07 07:19:04;;;;;;;;;;;3.10;99.90;;;;;;5117600;27;20002;-69
2023/12/07 07:21:29;;;;;;;;;;;3.10;99.90;;;;;;5113189;27;20306;-69
2023/12/07 07:23:56;;;;;;;;;;;3.00;99.90;;;;;;5116270;27;20430;-69
2023/12/07 07:26:21;;;;;;;;;;;3.00;99.90;;;;;;5118779;27;19916;-69
2023/12/07 07:28:47;;;;;;;;;;;3.00;99.90;;;;;;5118854;27;19956;-68
2023/12/07 07:31:12;;;;;;;;;;;3.00;99.90;;;;;;5103240;27;20026;-69
2023/12/07 07:33:38;;;;;;;;;;;3.00;99.90;;;;;;5105693;28;19948;-69
2023/12/07 07:36:03;;;;;;;;;;;3.00;99.90;;;;;;5105293;28;19923;-69
2023/12/07 07:38:29;;;;;;;;;;;2.90;99.90;;;;;;5106846;28;19916;-69
2023/12/07 07:40:54;;;;;;;;;;;2.90;99.90;;;;;;5107774;27;20338;-69
2023/12/07 07:43:20;;;;;;;;;;;2.90;99.90;;;;;;5114685;27;19916;-69
2023/12/07 07:45:45;;;;;;;;;;;2.90;99.90;;;;;;5110252;27;19923;-69
2023/12/07 07:48:12;;;;;;;;;;;2.90;99.90;;;;;;5114597;27;19912;-69
2023/12/07 07:50:37;;;;;;;;;;;2.90;99.90;;;;;;5107036;27;19926;-69
2023/12/07 07:53:03;;;;;;;;;;;2.80;99.90;;;;;;5106485;28;19916;-69
2023/12/07 07:55:29;;;;;;;;;;;2.90;99.90;;;;;;5114902;27;19911;-69
2023/12/07 07:57:55;;;;;;;;;;;2.90;99.90;;;;;;5106067;28;19912;-69
2023/12/07 08:00:21;;;;;;;;;;;2.80;99.90;;;;;;5106539;27;19923;-69
2023/12/07 08:02:46;;;;;;;;;;;2.80;99.90;;;;;;5106385;28;19951;-69
2023/12/07 08:05:12;;;;;;;;;;;2.80;99.90;;;;;;5105897;27;20015;-69
2023/12/07 08:07:39;;;;;;;;;;;2.80;99.90;;;;;;5121236;27;19979;-69
2023/12/07 08:10:04;;;;;;;;;;;2.80;99.90;;;;;;5102556;27;20276;-69
2023/12/07 08:12:30;;;;;;;;;;;2.80;99.90;;;;;;5114978;27;19911;-69
2023/12/07 08:14:56;;;;;;;;;;;2.80;99.90;;;;;;5120240;27;19911;-69
2023/12/07 08:17:21;;;;;;;;;;;2.80;99.90;;;;;;5093930;27;19919;-69
2023/12/07 08:19:47;;;;;;;;;;;2.80;99.90;;;;;;5108820;27;19919;-69
2023/12/07 08:22:13;;;;;;;;;;;2.80;99.90;;;;;;5101458;28;19951;-69
2023/12/07 08:24:39;;;;;;;;;;;2.80;99.90;;;;;;5115296;27;19918;-69
2023/12/07 08:27:04;;;;;;;;;;;2.80;99.90;;;;;;5107849;27;20014;-69
2023/12/07 08:29:30;;;;;;;;;;;2.80;99.90;;;;;;5107667;27;19920;-69
2023/12/07 08:31:56;;;;;;;;;;;2.80;99.90;;;;;;5110593;27;19995;-69
2023/12/07 08:34:21;;;;;;;;;;;2.80;99.90;;;;;;5112615;27;19923;-69
2023/12/07 08:36:47;;;;;;;;;;;2.80;99.90;;;;;;5104540;28;19939;-69
2023/12/07 08:39:13;;;;;;;;;;;2.80;99.90;;;;;;5104381;27;20366;-69
2023/12/07 08:41:38;;;;;;;;;;;2.80;99.90;;;;;;5104130;28;19923;-68
2023/12/07 08:44:05;;;;;;;;;;;2.80;99.90;;;;;;5102018;28;20412;-69
2023/12/07 08:46:30;;;;;;;;;;;2.80;99.90;;;;;;5103997;27;19912;-68
2023/12/07 08:48:56;;;;;;;;;;;2.90;99.90;;;;;;5104035;28;20026;-69
2023/12/07 08:51:21;;;;;;;;;;;2.90;99.90;;;;;;5104660;28;19920;-69
2023/12/07 08:53:47;;;;;;;;;;;2.90;99.90;;;;;;5096674;28;19912;-69
2023/12/07 08:56:12;;;;;;;;;;;2.80;99.90;;;;;;5083410;28;19912;-69
2023/12/07 08:58:38;;;;;;;;;;;2.90;99.90;;;;;;5106035;27;19912;-68
2023/12/07 09:01:05;;;;;;;;;;;2.90;99.90;;;;;;5105332;27;19947;-69
2023/12/07 09:03:31;;;;;;;;;;;2.90;99.90;;;;;;5110128;27;20097;-69
2023/12/07 09:05:57;;;;;;;;;;;2.90;99.90;;;;;;5090763;27;19912;-69
2023/12/07 09:08:23;;;;;;;;;;;2.90;99.90;;;;;;5120129;27;20006;-69
2023/12/07 09:10:52;;;;;;;;;;;2.90;99.90;;;;;;5113013;27;19922;-69
2023/12/07 09:13:18;;;;;;;;;;;2.90;99.90;;;;;;5100653;28;20576;-69
2023/12/07 09:15:43;;;;;;;;;;;2.90;99.90;;;;;;5116746;27;19919;-69
2023/12/07 09:18:10;;;;;;;;;;;3.00;99.90;;;;;;5088932;27;20246;-69
2023/12/07 09:20:37;;;;;;;;;;;2.90;99.90;;;;;;5116391;27;19922;-68
2023/12/07 09:23:04;;;;;;;;;;;3.00;99.90;;;;;;5105853;27;19912;-69
2023/12/07 09:25:30;;;;;;;;;;;3.00;99.90;;;;;;5090279;28;19912;-69
2023/12/07 09:27:56;;;;;;;;;;;3.00;99.90;;;;;;5092856;28;19912;-69
2023/12/07 09:30:22;;;;;;;;;;;3.00;99.90;;;;;;5100221;28;20269;-69
2023/12/07 09:32:47;;;;;;;;;;;3.00;99.90;;;;;;5104116;27;19912;-68
2023/12/07 09:35:19;;;;;;;;;;;3.00;99.90;;;;;;5105298;27;19915;-69
2023/12/07 09:37:44;;;;;;;;;;;3.00;99.90;;;;;;5099657;27;19916;-69
2023/12/07 09:40:19;;;;;;;;;;;3.00;99.90;;;;;;5089884;27;19972;-69
2023/12/07 09:42:45;;;;;;;;;;;3.00;99.90;;;;;;5107779;27;20027;-69
2023/12/07 09:45:11;;;;;;;;;;;3.10;99.90;;;;;;5090342;28;20014;-69
2023/12/07 09:47:38;;;;;;;;;;;3.10;99.90;;;;;;5106272;27;19922;-69
2023/12/07 09:50:08;;;;;;;;;;;3.10;99.90;;;;;;5103633;27;19916;-69
2023/12/07 09:52:34;;;;;;;;;;;3.10;99.90;;;;;;5112689;27;19914;-69
2023/12/07 09:55:01;;;;;;;;;;;3.10;99.90;;;;;;5094130;28;20023;-69
2023/12/07 09:57:26;;;;;;;;;;;3.10;99.90;;;;;;5116556;27;20010;-69
2023/12/07 09:59:52;;;;;;;;;;;3.10;99.90;;;;;;5100076;28;20013;-69
2023/12/07 10:02:17;;;;;;;;;;;3.20;99.90;;;;;;5096718;28;20444;-69
2023/12/07 10:04:43;;;;;;;;;;;3.20;99.90;;;;;;5130555;27;19947;-69
2023/12/07 10:07:09;;;;;;;;;;;3.20;99.90;;;;;;5104769;27;19920;-68
2023/12/07 10:09:43;;;;;;;;;;;3.20;99.90;;;;;;5109302;27;20321;-68
2023/12/07 10:12:10;;;;;;;;;;;3.20;99.90;;;;;;5106004;28;20456;-69
2023/12/07 10:14:35;;;;;;;;;;;3.20;99.90;;;;;;5099624;27;19919;-69
2023/12/07 10:17:01;;;;;;;;;;;3.20;99.90;;;;;;5093563;28;19912;-69
2023/12/07 10:19:27;;;;;;;;;;;3.20;99.90;;;;;;5083392;28;20343;-69
2023/12/07 10:21:53;;;;;;;;;;;3.20;99.90;;;;;;5100014;28;19911;-69
2023/12/07 10:24:23;;;;;;;;;;;3.20;99.90;;;;;;5101782;27;19916;-69
2023/12/07 10:26:50;;;;;;;;;;;3.30;99.90;;;;;;5103594;28;20488;-69
2023/12/07 10:29:23;;;;;;;;;;;3.30;99.90;;;;;;5102627;28;19926;-69
2023/12/07 10:31:49;;;;;;;;;;;3.30;99.90;;;;;;5100175;28;19916;-69
2023/12/07 10:34:18;;;;;;;;;;;3.30;99.90;;;;;;5102520;28;20123;-69
2023/12/07 10:36:45;;;;;;;;;;;3.30;99.90;;;;;;5103145;28;19922;-68
2023/12/07 10:39:10;;;;;;;;;;;3.30;99.90;;;;;;5103632;28;19911;-69
2023/12/07 10:41:39;;;;;;;;;;;3.30;99.90;;;;;;5087753;27;20318;-69
2023/12/07 10:44:06;;;;;;;;;;;3.30;99.90;;;;;;5109831;27;20003;-69
2023/12/07 10:46:34;;;;;;;;;;;3.30;99.90;;;;;;5101702;28;19919;-68
2023/12/07 10:49:03;;;;;;;;;;;3.40;99.90;;;;;;5095801;28;20006;-68
2023/12/07 10:51:29;;;;;;;;;;;3.30;99.90;;;;;;5122329;27;19930;-68
2023/12/07 10:53:56;;;;;;;;;;;3.30;99.90;;;;;;5115442;27;19911;-69
2023/12/07 10:56:29;;;;;;;;;;;3.40;99.90;;;;;;5114620;27;19919;-69
2023/12/07 10:58:55;;;;;;;;;;;3.40;99.90;;;;;;5115459;27;19912;-68
2023/12/07 11:01:21;;;;;;;;;;;3.40;99.90;;;;;;5094796;27;19911;-69
2023/12/07 11:03:49;;;;;;;;;;;3.40;99.90;;;;;;5110657;27;19921;-69
2023/12/07 11:06:14;;;;;;;;;;;3.40;99.90;;;;;;5115071;27;20024;-69
2023/12/07 11:08:46;;;;;;;;;;;3.40;99.90;;;;;;5108087;27;19961;-69
2023/12/07 11:11:30;;;;;;;;;;;3.40;99.90;;;;;;5097155;28;19963;-68
2023/12/07 11:14:00;;;;;;;;;;;3.40;99.90;;;;;;5097040;27;20669;-69
2023/12/07 11:16:32;;;;;;;;;;;3.40;99.90;;;;;;5106655;28;19912;-69
2023/12/07 11:19:00;;;;;;;;;;;3.50;99.90;;;;;;5106546;28;20306;-69
2023/12/07 11:21:26;;;;;;;;;;;3.50;99.90;;;;;;5106682;28;19930;-69
2023/12/07 11:23:52;;;;;;;;;;;3.50;99.90;;;;;;5106331;27;20346;-68
2023/12/07 11:26:24;;;;;;;;;;;3.50;99.90;;;;;;5094326;28;19912;-69
2023/12/07 11:28:50;;;;;;;;;;;3.50;99.90;;;;;;5092680;28;19922;-69
2023/12/07 11:31:15;;;;;;;;;;;3.50;99.90;;;;;;5098636;27;19915;-69
2023/12/07 11:33:42;;;;;;;;;;;3.50;99.90;;;;;;5111462;27;19912;-69
2023/12/07 11:36:08;;;;;;;;;;;3.60;99.90;;;;;;5097442;28;19912;-68
2023/12/07 11:38:35;;;;;;;;;;;3.60;99.90;;;;;;5106260;28;19912;-69
2023/12/07 11:41:02;;;;;;;;;;;3.60;99.90;;;;;;5114116;27;19916;-68
2023/12/07 11:43:40;;;;;;;;;;;3.60;99.90;;;;;;5106525;27;19994;-68
2023/12/07 11:46:09;;;;;;;;;;;3.60;99.90;;;;;;5114475;27;20624;-69
2023/12/07 11:48:35;;;;;;;;;;;3.60;99.90;;;;;;5110548;27;19914;-69
2023/12/07 11:51:04;;;;;;;;;;;3.60;99.90;;;;;;5115268;27;19915;-69
2023/12/07 11:53:33;;;;;;;;;;;3.60;99.90;;;;;;5118082;27;19911;-68
2023/12/07 11:56:00;;;;;;;;;;;3.70;99.90;;;;;;5118334;27;20457;-68
2023/12/07 11:58:26;;;;;;;;;;;3.70;99.90;;;;;;5115944;27;20273;-68
2023/12/07 12:00:53;;;;;;;;;;;3.70;99.90;;;;;;5117247;27;19956;-68
2023/12/07 12:03:20;;;;;;;;;;;3.70;99.90;;;;;;5117861;27;19956;-69
2023/12/07 12:05:45;;;;;;;;;;;3.70;99.90;;;;;;5117644;27;19918;-69
2023/12/07 12:08:11;;;;;;;;;;;3.70;99.90;;;;;;5125566;27;19916;-68
2023/12/07 12:10:37;;;;;;;;;;;3.70;99.90;;;;;;5102212;27;19923;-69
2023/12/07 12:13:03;;;;;;;;;;;3.70;99.90;;;;;;5114578;27;19912;-69
2023/12/07 12:15:29;;;;;;;;;;;3.70;99.90;;;;;;5120542;27;19934;-68
2023/12/07 12:17:57;;;;;;;;;;;3.80;99.90;;;;;;5113223;27;19950;-68
2023/12/07 12:20:24;;;;;;;;;;;3.70;99.90;;;;;;5105168;28;19965;-68
2023/12/07 12:22:49;;;;;;;;;;;3.70;99.90;;;;;;5113622;27;20260;-69
2023/12/07 12:25:15;;;;;;;;;;;3.70;99.90;;;;;;5113388;27;19911;-69
2023/12/07 12:27:41;;;;;;;;;;;3.70;99.90;;;;;;5104536;28;19930;-68
2023/12/07 12:30:07;;;;;;;;;;;3.80;99.90;;;;;;5104176;28;20279;-69
2023/12/07 12:32:52;;;;;;;;;;;3.80;99.90;;;;;;5096792;28;20606;-68
2023/12/07 12:35:18;;;;;;;;;;;3.80;99.90;;;;;;5095831;28;20368;-68
2023/12/07 12:37:44;;;;;;;;;;;3.70;99.90;;;;;;5113335;27;19919;-68
2023/12/07 12:40:15;;;;;;;;;;;3.70;99.90;;;;;;5112702;27;19969;-68
2023/12/07 12:42:42;;;;;;;;;;;3.80;99.90;;;;;;5104569;28;19947;-68
2023/12/07 12:45:08;;;;;;;;;;;3.70;99.90;;;;;;5114667;27;19964;-68
2023/12/07 12:47:35;;;;;;;;;;;3.70;99.90;;;;;;5103892;27;19930;-69
2023/12/07 12:50:01;;;;;;;;;;;3.80;99.90;;;;;;5108492;27;19924;-68
2023/12/07 12:52:28;;;;;;;;;;;3.70;99.90;;;;;;5104787;28;20582;-69
2023/12/07 12:54:55;;;;;;;;;;;3.80;99.90;;;;;;5102959;28;19912;-69
2023/12/07 12:57:20;;;;;;;;;;;3.70;99.90;;;;;;5096352;28;19930;-69
2023/12/07 12:59:48;;;;;;;;;;;3.80;99.90;;;;;;5102751;28;19916;-69
2023/12/07 13:02:13;;;;;;;;;;;3.70;99.90;;;;;;5112499;27;19919;-68
2023/12/07 13:04:40;;;;;;;;;;;3.70;99.90;;;;;;5091297;28;20285;-68
2023/12/07 13:07:05;;;;;;;;;;;3.70;99.90;;;;;;5105585;27;19915;-68
2023/12/07 13:09:31;;;;;;;;;;;3.70;99.90;;;;;;5109949;27;19998;-68
2023/12/07 13:11:57;;;;;;;;;;;3.70;99.90;;;;;;5095234;28;20489;-68
2023/12/07 13:14:23;;;;;;;;;;;3.70;99.90;;;;;;5122094;27;19942;-69
2023/12/07 13:16:48;;;;;;;;;;;3.70;99.90;;;;;;5108751;27;20005;-69
2023/12/07 13:19:14;;;;;;;;;;;3.70;99.90;;;;;;5111289;27;19916;-68
2023/12/07 13:21:39;;;;;;;;;;;3.70;99.90;;;;;;5112820;27;19908;-69
2023/12/07 13:24:07;;;;;;;;;;;3.80;99.90;;;;;;5112292;27;19918;-69
2023/12/07 13:26:33;;;;;;;;;;;3.70;99.90;;;;;;5103859;28;19912;-68
2023/12/07 13:28:58;;;;;;;;;;;3.70;99.90;;;;;;5120095;27;19970;-68
2023/12/07 13:31:24;;;;;;;;;;;3.70;99.90;;;;;;5091003;28;19920;-68
2023/12/07 13:33:51;;;;;;;;;;;3.70;99.90;;;;;;5094264;28;20412;-69
2023/12/07 13:36:17;;;;;;;;;;;3.80;99.90;;;;;;5116944;27;20008;-68
2023/12/07 13:38:43;;;;;;;;;;;3.70;99.90;;;;;;5098721;28;19918;-68
2023/12/07 13:41:09;;;;;;;;;;;3.70;99.90;;;;;;5094612;28;20529;-68
2023/12/07 13:43:34;;;;;;;;;;;3.70;99.90;;;;;;5103417;28;19919;-68
2023/12/07 13:46:00;;;;;;;;;;;3.70;99.90;;;;;;5102944;28;20020;-69
2023/12/07 13:48:26;;;;;;;;;;;3.70;99.90;;;;;;5106070;27;20589;-68
2023/12/07 13:50:52;;;;;;;;;;;3.80;99.90;;;;;;5096918;27;20550;-68
2023/12/07 13:53:18;;;;;;;;;;;3.70;99.90;;;;;;5107070;28;19919;-69
2023/12/07 13:55:44;;;;;;;;;;;3.70;99.90;;;;;;5097828;28;20412;-68
2023/12/07 13:58:10;;;;;;;;;;;3.70;99.90;;;;;;5102502;28;19930;-68
2023/12/07 14:00:37;;;;;;;;;;;3.70;99.90;;;;;;5103149;28;20532;-68
2023/12/07 14:03:03;;;;;;;;;;;3.70;99.90;;;;;;5102430;27;20292;-68
2023/12/07 14:05:29;;;;;;;;;;;3.70;99.90;;;;;;5103302;28;20744;-69
2023/12/07 14:07:55;;;;;;;;;;;3.70;99.90;;;;;;5100756;28;19912;-68
2023/12/07 14:10:21;;;;;;;;;;;3.70;99.90;;;;;;5090654;28;20275;-69
2023/12/07 14:12:47;;;;;;;;;;;3.70;99.90;;;;;;5107002;28;19918;-68
2023/12/07 14:15:13;;;;;;;;;;;3.70;99.90;;;;;;5111154;28;19995;-69
2023/12/07 14:17:38;;;;;;;;;;;3.70;99.90;;;;;;5112014;27;19988;-69
2023/12/07 14:20:04;;;;;;;;;;;3.70;99.90;;;;;;5102935;28;19919;-68
2023/12/07 14:22:29;;;;;;;;;;;3.70;99.90;;;;;;5103358;28;19912;-68
2023/12/07 14:24:55;;;;;;;;;;;3.70;99.90;;;;;;5114310;27;19911;-68